sensor_id;sensor_type;location;lat;lon;timestamp;temperature;humidity
4429;DHT22;2227;47.810;8.810;2024-02-21T04:48:55;3.70;99.90
4429;DHT22;2227;47.810;8.810;2024-02-21T04:51:23;3.80;99.90
4429;DHT22;2227;47.810;8.810;2024-02-21T04:53:49;3.70;99.90
4429;DHT22;2227;47.810;8.810;2024-02-21T04:56:16;3.70;99.90
4429;DHT22;2227;47.810;8.810;2024-02-21T04:58:43;3.70;99.90
4429;DHT22;2227;47.810;8.810;2024-02-21T05:01:10;3.70;99.90
4429;DHT22;2227;47.810;8.810;2024-02-21T05:03:38;3.80;99.90
4429;DHT22;2227;47.810;8.810;2024-02-21T05:06:05;3.80;99.90
4429;DHT22;2227;47.810;8.810;2024-02-21T05:08:32;3.70;99.90
4429;DHT22;2227;47.810;8.810;2024-02-21T05:10:59;3.70;99.90
4429;DHT22;2227;47.810;8.810;2024-02-21T05:13:26;3.70;99.90
4429;DHT22;2227;47.810;8.810;2024-02-21T05:15:53;3.70;99.90
4429;DHT22;2227;47.810;8.810;2024-02-21T05:18:20;3.70;99.90
4429;DHT22;2227;47.810;8.810;2024-02-21T05:20:47;3.60;99.90
4429;DHT22;2227;47.810;8.810;2024-02-21T05:23:14;3.50;99.90
4429;DHT22;2227;47.810;8.810;2024-02-21T05:25:40;3.30;99.90
4429;DHT22;2227;47.810;8.810;2024-02-21T05:28:07;3.30;99.90
4429;DHT22;2227;47.810;8.810;2024-02-21T05:30:34;3.20;99.90
4429;DHT22;2227;47.810;8.810;2024-02-21T05:33:07;3.20;99.90
4429;DHT22;2227;47.810;8.810;2024-02-21T05:35:35;3.40;99.90
4429;DHT22;2227;47.810;8.810;2024-02-21T05:38:02;3.50;99.90
4429;DHT22;2227;47.810;8.810;2024-02-21T05:40:37;3.50;99.90
4429;DHT22;2227;47.810;8.810;2024-02-21T05:43:04;3.50;99.90
4429;DHT22;2227;47.810;8.810;2024-02-21T05:45:31;3.50;99.90
4429;DHT22;2227;47.810;8.810;2024-02-21T05:47:58;3.60;99.90
4429;DHT22;2227;47.810;8.810;2024-02-21T05:50:26;3.60;99.90
4429;DHT22;2227;47.810;8.810;2024-02-21T05:52:56;3.60;99.90
4429;DHT22;2227;47.810;8.810;2024-02-21T05:55:23;3.60;99.90
4429;DHT22;2227;47.810;8.810;2024-02-21T05:57:53;3.60;99.90
4429;DHT22;2227;47.810;8.810;2024-02-21T06:00:19;3.50;99.90
4429;DHT22;2227;47.810;8.810;2024-02-21T06:02:46;3.40;99.90
4429;DHT22;2227;47.810;8.810;2024-02-21T06:05:13;3.40;99.90
4429;DHT22;2227;47.810;8.810;2024-02-21T06:07:40;3.40;99.90
4429;DHT22;2227;47.810;8.810;2024-02-21T06:10:07;3.30;99.90
4429;DHT22;2227;47.810;8.810;2024-02-21T06:12:34;3.30;99.90
4429;DHT22;2227;47.810;8.810;2024-02-21T06:15:01;3.20;99.90
4429;DHT22;2227;47.810;8.810;2024-02-21T06:17:28;3.10;99.90
4429;DHT22;2227;47.810;8.810;2024-02-21T06:19:55;3.10;99.90
4429;DHT22;2227;47.810;8.810;2024-02-21T06:22:21;3.10;99.90
4429;DHT22;2227;47.810;8.810;2024-02-21T06:24:48;3.20;99.90
4429;DHT22;2227;47.810;8.810;2024-02-21T06:27:15;3.20;99.90
4429;DHT22;2227;47.810;8.810;2024-02-21T06:29:43;3.30;99.90
4429;DHT22;2227;47.810;8.810;2024-02-21T06:32:10;3.20;99.90
4429;DHT22;2227;47.810;8.810;2024-02-21T06:34:37;3.10;99.90
4429;DHT22;2227;47.810;8.810;2024-02-21T06:37:04;3.20;99.90
4429;DHT22;2227;47.810;8.810;2024-02-21T06:39:31;3.30;99.90
4429;DHT22;2227;47.810;8.810;2024-02-21T06:41:57;3.40;99.90
4429;DHT22;2227;47.810;8.810;2024-02-21T06:44:29;3.50;99.90
4429;DHT22;2227;47.810;8.810;2024-02-21T06:46:56;3.60;99.90
4429;DHT22;2227;47.810;8.810;2024-02-21T06:49:23;3.60;99.90
4429;DHT22;2227;47.810;8.810;2024-02-21T06:51:50;3.60;99.90
4429;DHT22;2227;47.810;8.810;2024-02-21T06:54:17;3.60;99.90
4429;DHT22;2227;47.810;8.810;2024-02-21T06:56:43;3.60;99.90
4429;DHT22;2227;47.810;8.810;2024-02-21T06:59:10;3.60;99.90
4429;DHT22;2227;47.810;8.810;2024-02-21T07:01:38;3.60;99.90
4429;DHT22;2227;47.810;8.810;2024-02-21T07:04:05;3.60;99.90
4429;DHT22;2227;47.810;8.810;2024-02-21T07:06:31;3.60;99.90
4429;DHT22;2227;47.810;8.810;2024-02-21T07:09:02;3.70;99.90
4429;DHT22;2227;47.810;8.810;2024-02-21T07:11:29;3.80;99.90
4429;DHT22;2227;47.810;8.810;2024-02-21T07:13:56;3.70;99.90
4429;DHT22;2227;47.810;8.810;2024-02-21T07:16:23;3.50;99.90
4429;DHT22;2227;47.810;8.810;2024-02-21T07:18:49;3.60;99.90
4429;DHT22;2227;47.810;8.810;2024-02-21T07:21:16;3.90;99.90
4429;DHT22;2227;47.810;8.810;2024-02-21T07:23:43;4.00;99.90
4429;DHT22;2227;47.810;8.810;2024-02-21T07:26:10;4.20;99.90
4429;DHT22;2227;47.810;8.810;2024-02-21T07:28:37;4.40;99.90
4429;DHT22;2227;47.810;8.810;2024-02-21T07:31:04;4.60;99.90
4429;DHT22;2227;47.810;8.810;2024-02-21T07:33:31;4.90;99.90
4429;DHT22;2227;47.810;8.810;2024-02-21T07:35:58;5.30;99.90
4429;DHT22;2227;47.810;8.810;2024-02-21T07:38:24;5.70;99.90
4429;DHT22;2227;47.810;8.810;2024-02-21T07:40:51;6.20;99.90
4429;DHT22;2227;47.810;8.810;2024-02-21T07:43:18;6.70;99.90
4429;DHT22;2227;47.810;8.810;2024-02-21T07:45:45;7.30;99.90
4429;DHT22;2227;47.810;8.810;2024-02-21T07:48:12;7.90;99.90
4429;DHT22;2227;47.810;8.810;2024-02-21T07:50:38;8.50;99.90
4429;DHT22;2227;47.810;8.810;2024-02-21T07:53:05;9.10;99.90
4429;DHT22;2227;47.810;8.810;2024-02-21T07:55:32;9.60;99.90
4429;DHT22;2227;47.810;8.810;2024-02-21T07:57:59;10.20;99.90
4429;DHT22;2227;47.810;8.810;2024-02-21T08:00:26;10.70;99.90
4429;DHT22;2227;47.810;8.810;2024-02-21T08:02:52;11.10;99.90
4429;DHT22;2227;47.810;8.810;2024-02-21T08:05:19;11.30;99.90
4429;DHT22;2227;47.810;8.810;2024-02-21T08:07:48;11.70;99.90
4429;DHT22;2227;47.810;8.810;2024-02-21T08:10:14;11.90;99.90
4429;DHT22;2227;47.810;8.810;2024-02-21T08:12:41;11.90;99.90
4429;DHT22;2227;47.810;8.810;2024-02-21T08:15:08;11.90;99.90
4429;DHT22;2227;47.810;8.810;2024-02-21T08:17:37;11.80;99.90
4429;DHT22;2227;47.810;8.810;2024-02-21T08:20:04;11.50;99.90
4429;DHT22;2227;47.810;8.810;2024-02-21T08:22:31;11.40;99.90
4429;DHT22;2227;47.810;8.810;2024-02-21T08:24:58;11.20;99.90
4429;DHT22;2227;47.810;8.810;2024-02-21T08:27:26;11.10;99.90
4429;DHT22;2227;47.810;8.810;2024-02-21T08:29:53;10.90;99.90
4429;DHT22;2227;47.810;8.810;2024-02-21T08:32:19;11.00;99.90
4429;DHT22;2227;47.810;8.810;2024-02-21T08:34:46;11.20;99.90
4429;DHT22;2227;47.810;8.810;2024-02-21T08:37:13;11.20;99.90
4429;DHT22;2227;47.810;8.810;2024-02-21T08:39:40;11.50;99.90
4429;DHT22;2227;47.810;8.810;2024-02-21T08:42:07;11.90;99.90
4429;DHT22;2227;47.810;8.810;2024-02-21T08:44:33;12.20;99.90
4429;DHT22;2227;47.810;8.810;2024-02-21T08:47:00;12.50;99.90
4429;DHT22;2227;47.810;8.810;2024-02-21T08:49:30;12.70;99.90
4429;DHT22;2227;47.810;8.810;2024-02-21T08:52:04;13.10;99.90
4429;DHT22;2227;47.810;8.810;2024-02-21T08:54:31;12.90;99.90
4429;DHT22;2227;47.810;8.810;2024-02-21T08:56:59;13.30;99.90
4429;DHT22;2227;47.810;8.810;2024-02-21T08:59:26;13.60;99.90
4429;DHT22;2227;47.810;8.810;2024-02-21T09:01:53;13.70;99.90
4429;DHT22;2227;47.810;8.810;2024-02-21T09:04:20;13.60;99.90
4429;DHT22;2227;47.810;8.810;2024-02-21T09:06:47;13.60;99.90
4429;DHT22;2227;47.810;8.810;2024-02-21T09:09:14;13.60;99.90
4429;DHT22;2227;47.810;8.810;2024-02-21T09:11:41;13.50;99.90
4429;DHT22;2227;47.810;8.810;2024-02-21T09:14:08;13.80;99.90
4429;DHT22;2227;47.810;8.810;2024-02-21T09:16:35;13.50;99.90
4429;DHT22;2227;47.810;8.810;2024-02-21T09:19:01;13.70;99.90
4429;DHT22;2227;47.810;8.810;2024-02-21T09:21:28;14.30;99.90
4429;DHT22;2227;47.810;8.810;2024-02-21T09:23:55;13.90;99.90
4429;DHT22;2227;47.810;8.810;2024-02-21T09:26:26;13.90;99.90
4429;DHT22;2227;47.810;8.810;2024-02-21T09:28:53;14.60;99.90
4429;DHT22;2227;47.810;8.810;2024-02-21T09:31:20;14.20;99.90
4429;DHT22;2227;47.810;8.810;2024-02-21T09:33:47;14.60;99.90
4429;DHT22;2227;47.810;8.810;2024-02-21T09:36:14;15.00;99.90
4429;DHT22;2227;47.810;8.810;2024-02-21T09:38:41;14.40;99.90
4429;DHT22;2227;47.810;8.810;2024-02-21T09:41:15;14.70;99.90
4429;DHT22;2227;47.810;8.810;2024-02-21T09:43:51;14.90;99.90
4429;DHT22;2227;47.810;8.810;2024-02-21T09:46:27;15.30;99.90
4429;DHT22;2227;47.810;8.810;2024-02-21T09:49:12;15.70;99.90
4429;DHT22;2227;47.810;8.810;2024-02-21T09:51:41;16.30;99.90
4429;DHT22;2227;47.810;8.810;2024-02-21T09:54:10;16.70;99.90
4429;DHT22;2227;47.810;8.810;2024-02-21T09:56:45;17.20;99.90
4429;DHT22;2227;47.810;8.810;2024-02-21T09:59:15;17.10;99.90
4429;DHT22;2227;47.810;8.810;2024-02-21T10:01:43;17.40;99.30
4429;DHT22;2227;47.810;8.810;2024-02-21T10:04:11;17.30;99.30
4429;DHT22;2227;47.810;8.810;2024-02-21T10:06:38;17.20;99.10
4429;DHT22;2227;47.810;8.810;2024-02-21T10:09:06;16.80;99.60
4429;DHT22;2227;47.810;8.810;2024-02-21T10:11:33;16.80;99.50
4429;DHT22;2227;47.810;8.810;2024-02-21T10:14:07;16.60;99.50
4429;DHT22;2227;47.810;8.810;2024-02-21T10:16:35;16.30;99.80
4429;DHT22;2227;47.810;8.810;2024-02-21T10:19:04;15.90;99.90
4429;DHT22;2227;47.810;8.810;2024-02-21T10:21:31;15.70;99.90
4429;DHT22;2227;47.810;8.810;2024-02-21T10:23:58;15.20;99.90
4429;DHT22;2227;47.810;8.810;2024-02-21T10:26:25;14.80;99.90
4429;DHT22;2227;47.810;8.810;2024-02-21T10:28:51;15.00;99.90
4429;DHT22;2227;47.810;8.810;2024-02-21T10:31:26;15.30;99.90
4429;DHT22;2227;47.810;8.810;2024-02-21T10:33:58;16.00;99.90
4429;DHT22;2227;47.810;8.810;2024-02-21T10:36:26;15.60;99.90
4429;DHT22;2227;47.810;8.810;2024-02-21T10:38:53;15.20;99.90
4429;DHT22;2227;47.810;8.810;2024-02-21T10:41:22;14.50;99.90
4429;DHT22;2227;47.810;8.810;2024-02-21T10:43:51;13.90;99.90
4429;DHT22;2227;47.810;8.810;2024-02-21T10:46:23;13.80;99.90
4429;DHT22;2227;47.810;8.810;2024-02-21T10:49:20;13.30;99.90
4429;DHT22;2227;47.810;8.810;2024-02-21T10:51:49;13.30;99.90
4429;DHT22;2227;47.810;8.810;2024-02-21T10:56:50;14.60;99.90
4429;DHT22;2227;47.810;8.810;2024-02-21T10:59:18;15.60;99.90
4429;DHT22;2227;47.810;8.810;2024-02-21T11:01:45;15.60;99.90
4429;DHT22;2227;47.810;8.810;2024-02-21T11:04:12;15.40;99.90
4429;DHT22;2227;47.810;8.810;2024-02-21T11:06:40;15.60;99.90
4429;DHT22;2227;47.810;8.810;2024-02-21T11:09:09;16.50;99.90
4429;DHT22;2227;47.810;8.810;2024-02-21T11:11:42;16.30;99.40
4429;DHT22;2227;47.810;8.810;2024-02-21T11:14:20;15.70;99.90
4429;DHT22;2227;47.810;8.810;2024-02-21T11:16:47;15.20;99.80
4429;DHT22;2227;47.810;8.810;2024-02-21T11:19:27;14.60;99.90
4429;DHT22;2227;47.810;8.810;2024-02-21T11:21:56;14.40;99.90
4429;DHT22;2227;47.810;8.810;2024-02-21T11:24:31;14.40;99.90
4429;DHT22;2227;47.810;8.810;2024-02-21T11:27:21;14.50;99.90
4429;DHT22;2227;47.810;8.810;2024-02-21T11:29:56;14.20;99.90
4429;DHT22;2227;47.810;8.810;2024-02-21T11:32:23;13.70;99.90
4429;DHT22;2227;47.810;8.810;2024-02-21T11:35:00;13.60;99.90
4429;DHT22;2227;47.810;8.810;2024-02-21T11:37:35;13.20;99.90
4429;DHT22;2227;47.810;8.810;2024-02-21T11:40:07;13.10;99.90
4429;DHT22;2227;47.810;8.810;2024-02-21T11:42:38;13.60;99.90
4429;DHT22;2227;47.810;8.810;2024-02-21T11:45:06;14.30;99.90
4429;DHT22;2227;47.810;8.810;2024-02-21T11:47:35;13.90;99.90
4429;DHT22;2227;47.810;8.810;2024-02-21T11:50:10;13.50;99.90
4429;DHT22;2227;47.810;8.810;2024-02-21T11:52:37;13.10;99.90
4429;DHT22;2227;47.810;8.810;2024-02-21T11:55:05;13.00;99.90
4429;DHT22;2227;47.810;8.810;2024-02-21T11:57:32;13.00;99.90
4429;DHT22;2227;47.810;8.810;2024-02-21T12:00:15;12.90;99.90
4429;DHT22;2227;47.810;8.810;2024-02-21T12:02:43;13.20;99.90
4429;DHT22;2227;47.810;8.810;2024-02-21T12:05:10;13.40;99.90
4429;DHT22;2227;47.810;8.810;2024-02-21T12:07:38;13.50;99.90
4429;DHT22;2227;47.810;8.810;2024-02-21T12:10:11;13.70;99.90
4429;DHT22;2227;47.810;8.810;2024-02-21T12:12:39;13.90;99.90
4429;DHT22;2227;47.810;8.810;2024-02-21T12:15:08;13.70;99.90
4429;DHT22;2227;47.810;8.810;2024-02-21T12:17:36;13.60;99.90
4429;DHT22;2227;47.810;8.810;2024-02-21T12:20:04;13.40;99.90
4429;DHT22;2227;47.810;8.810;2024-02-21T12:22:39;13.30;99.90
4429;DHT22;2227;47.810;8.810;2024-02-21T12:25:19;13.00;99.90
4429;DHT22;2227;47.810;8.810;2024-02-21T12:27:49;12.80;99.90
4429;DHT22;2227;47.810;8.810;2024-02-21T12:30:16;12.90;99.90
4429;DHT22;2227;47.810;8.810;2024-02-21T12:32:43;13.00;99.90
4429;DHT22;2227;47.810;8.810;2024-02-21T12:35:10;12.80;99.90
4429;DHT22;2227;47.810;8.810;2024-02-21T12:37:37;12.80;99.90
4429;DHT22;2227;47.810;8.810;2024-02-21T12:40:06;12.80;99.90
4429;DHT22;2227;47.810;8.810;2024-02-21T12:42:34;12.60;99.90
4429;DHT22;2227;47.810;8.810;2024-02-21T12:45:02;12.10;99.90
4429;DHT22;2227;47.810;8.810;2024-02-21T12:47:30;11.90;99.90
4429;DHT22;2227;47.810;8.810;2024-02-21T12:49:57;11.70;99.90
4429;DHT22;2227;47.810;8.810;2024-02-21T12:52:24;11.80;99.90
4429;DHT22;2227;47.810;8.810;2024-02-21T12:54:53;11.70;99.90
4429;DHT22;2227;47.810;8.810;2024-02-21T12:57:23;11.50;99.90
4429;DHT22;2227;47.810;8.810;2024-02-21T12:59:52;11.50;99.90
4429;DHT22;2227;47.810;8.810;2024-02-21T13:02:19;11.50;99.90
4429;DHT22;2227;47.810;8.810;2024-02-21T13:04:47;11.50;99.90
4429;DHT22;2227;47.810;8.810;2024-02-21T13:07:14;11.50;99.90
4429;DHT22;2227;47.810;8.810;2024-02-21T13:09:41;11.60;99.90
4429;DHT22;2227;47.810;8.810;2024-02-21T13:12:08;11.50;99.90
4429;DHT22;2227;47.810;8.810;2024-02-21T13:14:35;11.60;99.90
4429;DHT22;2227;47.810;8.810;2024-02-21T13:17:01;11.70;99.90
4429;DHT22;2227;47.810;8.810;2024-02-21T13:19:28;11.80;99.90
4429;DHT22;2227;47.810;8.810;2024-02-21T13:21:56;11.80;99.90
4429;DHT22;2227;47.810;8.810;2024-02-21T13:24:22;12.10;99.90
4429;DHT22;2227;47.810;8.810;2024-02-21T13:26:49;12.30;99.90
4429;DHT22;2227;47.810;8.810;2024-02-21T13:29:16;12.60;99.90
4429;DHT22;2227;47.810;8.810;2024-02-21T13:31:44;12.60;99.90
4429;DHT22;2227;47.810;8.810;2024-02-21T13:34:11;12.70;99.90
4429;DHT22;2227;47.810;8.810;2024-02-21T13:36:38;12.80;99.90
4429;DHT22;2227;47.810;8.810;2024-02-21T13:39:05;12.80;99.90
4429;DHT22;2227;47.810;8.810;2024-02-21T13:41:32;13.10;99.90
4429;DHT22;2227;47.810;8.810;2024-02-21T13:44:00;13.00;99.90
4429;DHT22;2227;47.810;8.810;2024-02-21T13:46:27;12.80;99.90
4429;DHT22;2227;47.810;8.810;2024-02-21T13:49:03;13.10;99.90
4429;DHT22;2227;47.810;8.810;2024-02-21T13:51:31;13.20;99.90
4429;DHT22;2227;47.810;8.810;2024-02-21T13:53:58;13.10;99.90
4429;DHT22;2227;47.810;8.810;2024-02-21T13:56:25;12.90;99.90
4429;DHT22;2227;47.810;8.810;2024-02-21T13:58:53;12.80;99.90
4429;DHT22;2227;47.810;8.810;2024-02-21T14:01:20;12.80;99.90
4429;DHT22;2227;47.810;8.810;2024-02-21T14:03:47;12.90;99.90
4429;DHT22;2227;47.810;8.810;2024-02-21T14:06:13;13.10;99.90
4429;DHT22;2227;47.810;8.810;2024-02-21T14:08:40;13.00;99.90
4429;DHT22;2227;47.810;8.810;2024-02-21T14:11:07;12.80;99.90
4429;DHT22;2227;47.810;8.810;2024-02-21T14:13:34;12.80;99.90
4429;DHT22;2227;47.810;8.810;2024-02-21T14:16:01;12.40;99.90
4429;DHT22;2227;47.810;8.810;2024-02-21T14:18:28;12.70;99.90
4429;DHT22;2227;47.810;8.810;2024-02-21T14:20:55;12.50;99.90
4429;DHT22;2227;47.810;8.810;2024-02-21T14:23:22;12.50;99.90
4429;DHT22;2227;47.810;8.810;2024-02-21T14:25:49;12.30;99.90
4429;DHT22;2227;47.810;8.810;2024-02-21T14:28:16;12.50;99.90
4429;DHT22;2227;47.810;8.810;2024-02-21T14:30:47;12.50;99.90
4429;DHT22;2227;47.810;8.810;2024-02-21T14:33:15;12.40;99.90
4429;DHT22;2227;47.810;8.810;2024-02-21T14:35:42;12.40;99.90
4429;DHT22;2227;47.810;8.810;2024-02-21T14:38:09;12.30;99.90
4429;DHT22;2227;47.810;8.810;2024-02-21T14:40:36;12.50;99.90
4429;DHT22;2227;47.810;8.810;2024-02-21T14:43:02;12.80;99.90
4429;DHT22;2227;47.810;8.810;2024-02-21T14:45:29;13.00;99.90
4429;DHT22;2227;47.810;8.810;2024-02-21T14:47:56;13.20;99.90
4429;DHT22;2227;47.810;8.810;2024-02-21T14:50:23;13.20;99.90
4429;DHT22;2227;47.810;8.810;2024-02-21T14:52:50;13.20;99.90
4429;DHT22;2227;47.810;8.810;2024-02-21T14:55:17;13.40;99.90
4429;DHT22;2227;47.810;8.810;2024-02-21T14:57:44;13.40;99.90
4429;DHT22;2227;47.810;8.810;2024-02-21T15:00:12;13.30;99.90
4429;DHT22;2227;47.810;8.810;2024-02-21T15:02:39;13.20;99.90
4429;DHT22;2227;47.810;8.810;2024-02-21T15:05:06;13.10;99.90
4429;DHT22;2227;47.810;8.810;2024-02-21T15:07:33;13.20;99.90
4429;DHT22;2227;47.810;8.810;2024-02-21T15:10:00;13.40;99.90
4429;DHT22;2227;47.810;8.810;2024-02-21T15:12:27;13.60;99.90
4429;DHT22;2227;47.810;8.810;2024-02-21T15:14:54;13.70;99.90
4429;DHT22;2227;47.810;8.810;2024-02-21T15:17:21;13.60;99.90
4429;DHT22;2227;47.810;8.810;2024-02-21T15:19:48;13.70;99.90
4429;DHT22;2227;47.810;8.810;2024-02-21T15:22:15;13.80;99.90
4429;DHT22;2227;47.810;8.810;2024-02-21T15:24:44;13.80;99.90
4429;DHT22;2227;47.810;8.810;2024-02-21T15:27:15;13.70;99.90
4429;DHT22;2227;47.810;8.810;2024-02-21T15:29:42;13.70;99.90
4429;DHT22;2227;47.810;8.810;2024-02-21T15:32:09;13.50;99.90
4429;DHT22;2227;47.810;8.810;2024-02-21T15:34:36;13.30;99.90
4429;DHT22;2227;47.810;8.810;2024-02-21T15:37:03;13.10;99.90
4429;DHT22;2227;47.810;8.810;2024-02-21T15:39:31;12.90;99.90
4429;DHT22;2227;47.810;8.810;2024-02-21T15:41:57;12.90;99.90
4429;DHT22;2227;47.810;8.810;2024-02-21T15:44:24;12.90;99.90
4429;DHT22;2227;47.810;8.810;2024-02-21T15:46:51;12.90;99.90
4429;DHT22;2227;47.810;8.810;2024-02-21T15:49:20;12.80;99.90
4429;DHT22;2227;47.810;8.810;2024-02-21T15:51:48;12.70;99.90
4429;DHT22;2227;47.810;8.810;2024-02-21T15:54:15;12.70;99.90
4429;DHT22;2227;47.810;8.810;2024-02-21T15:56:49;12.80;99.90
4429;DHT22;2227;47.810;8.810;2024-02-21T15:59:15;12.70;99.90
4429;DHT22;2227;47.810;8.810;2024-02-21T16:01:42;12.70;99.90
4429;DHT22;2227;47.810;8.810;2024-02-21T16:04:10;12.60;99.90
4429;DHT22;2227;47.810;8.810;2024-02-21T16:06:36;12.40;99.90
4429;DHT22;2227;47.810;8.810;2024-02-21T16:09:03;12.40;99.90
4429;DHT22;2227;47.810;8.810;2024-02-21T16:11:32;12.40;99.90
4429;DHT22;2227;47.810;8.810;2024-02-21T16:14:00;12.20;99.90
4429;DHT22;2227;47.810;8.810;2024-02-21T16:16:29;12.10;99.90
4429;DHT22;2227;47.810;8.810;2024-02-21T16:18:57;12.10;99.90
4429;DHT22;2227;47.810;8.810;2024-02-21T16:21:24;12.00;99.90
4429;DHT22;2227;47.810;8.810;2024-02-21T16:23:51;11.90;99.90
4429;DHT22;2227;47.810;8.810;2024-02-21T16:26:18;11.80;99.90
4429;DHT22;2227;47.810;8.810;2024-02-21T16:28:45;11.70;99.90
4429;DHT22;2227;47.810;8.810;2024-02-21T16:31:12;11.70;99.90
4429;DHT22;2227;47.810;8.810;2024-02-21T16:33:40;11.60;99.90
4429;DHT22;2227;47.810;8.810;2024-02-21T16:36:07;11.50;99.90
4429;DHT22;2227;47.810;8.810;2024-02-21T16:38:36;11.40;99.90
4429;DHT22;2227;47.810;8.810;2024-02-21T16:41:06;11.40;99.90
4429;DHT22;2227;47.810;8.810;2024-02-21T16:43:34;11.40;99.90
4429;DHT22;2227;47.810;8.810;2024-02-21T16:46:00;11.30;99.90
4429;DHT22;2227;47.810;8.810;2024-02-21T16:48:27;11.40;99.90
4429;DHT22;2227;47.810;8.810;2024-02-21T16:50:56;11.40;99.90
4429;DHT22;2227;47.810;8.810;2024-02-21T16:53:27;11.50;99.90
4429;DHT22;2227;47.810;8.810;2024-02-21T16:55:54;11.50;99.90
4429;DHT22;2227;47.810;8.810;2024-02-21T16:58:21;11.50;99.90
4429;DHT22;2227;47.810;8.810;2024-02-21T17:00:48;11.50;99.90
4429;DHT22;2227;47.810;8.810;2024-02-21T17:03:15;11.50;99.90
4429;DHT22;2227;47.810;8.810;2024-02-21T17:05:47;11.40;99.90
4429;DHT22;2227;47.810;8.810;2024-02-21T17:08:23;11.30;99.90
4429;DHT22;2227;47.810;8.810;2024-02-21T17:10:51;11.30;99.90
4429;DHT22;2227;47.810;8.810;2024-02-21T17:13:18;11.20;99.90
4429;DHT22;2227;47.810;8.810;2024-02-21T17:15:45;11.00;99.90
4429;DHT22;2227;47.810;8.810;2024-02-21T17:18:12;11.10;99.90
4429;DHT22;2227;47.810;8.810;2024-02-21T17:20:39;11.10;99.90
4429;DHT22;2227;47.810;8.810;2024-02-21T17:23:06;11.20;99.90
4429;DHT22;2227;47.810;8.810;2024-02-21T17:25:33;11.20;99.90
4429;DHT22;2227;47.810;8.810;2024-02-21T17:27:59;11.10;99.90
4429;DHT22;2227;47.810;8.810;2024-02-21T17:30:26;11.00;99.90
4429;DHT22;2227;47.810;8.810;2024-02-21T17:32:53;11.00;99.90
4429;DHT22;2227;47.810;8.810;2024-02-21T17:35:20;11.00;99.90
4429;DHT22;2227;47.810;8.810;2024-02-21T17:37:47;11.10;99.90
4429;DHT22;2227;47.810;8.810;2024-02-21T17:40:14;11.00;99.90
4429;DHT22;2227;47.810;8.810;2024-02-21T17:42:41;10.70;99.90
4429;DHT22;2227;47.810;8.810;2024-02-21T17:45:08;10.70;99.90
4429;DHT22;2227;47.810;8.810;2024-02-21T17:47:35;10.80;99.90
4429;DHT22;2227;47.810;8.810;2024-02-21T17:50:02;10.80;99.90
4429;DHT22;2227;47.810;8.810;2024-02-21T17:52:29;10.60;99.90
4429;DHT22;2227;47.810;8.810;2024-02-21T17:54:57;10.70;99.90
4429;DHT22;2227;47.810;8.810;2024-02-21T17:57:24;10.70;99.90
4429;DHT22;2227;47.810;8.810;2024-02-21T17:59:52;10.60;99.90
4429;DHT22;2227;47.810;8.810;2024-02-21T18:02:20;10.60;99.90
4429;DHT22;2227;47.810;8.810;2024-02-21T18:04:50;10.50;99.90
4429;DHT22;2227;47.810;8.810;2024-02-21T18:07:18;10.60;99.90
4429;DHT22;2227;47.810;8.810;2024-02-21T18:09:47;10.50;99.90
4429;DHT22;2227;47.810;8.810;2024-02-21T18:12:14;10.40;99.90
4429;DHT22;2227;47.810;8.810;2024-02-21T18:14:40;10.40;99.90
4429;DHT22;2227;47.810;8.810;2024-02-21T18:17:07;10.40;99.90
4429;DHT22;2227;47.810;8.810;2024-02-21T18:19:34;10.20;99.90
4429;DHT22;2227;47.810;8.810;2024-02-21T18:22:02;10.30;99.90
4429;DHT22;2227;47.810;8.810;2024-02-21T18:24:29;10.40;99.90
4429;DHT22;2227;47.810;8.810;2024-02-21T18:26:57;10.40;99.90
4429;DHT22;2227;47.810;8.810;2024-02-21T18:29:24;10.50;99.90
4429;DHT22;2227;47.810;8.810;2024-02-21T18:32:06;10.40;99.90
4429;DHT22;2227;47.810;8.810;2024-02-21T18:34:36;10.40;99.90
4429;DHT22;2227;47.810;8.810;2024-02-21T18:37:04;10.40;99.90
4429;DHT22;2227;47.810;8.810;2024-02-21T18:39:31;10.40;99.90
4429;DHT22;2227;47.810;8.810;2024-02-21T18:41:58;10.50;99.90
4429;DHT22;2227;47.810;8.810;2024-02-21T18:44:25;10.40;99.90
4429;DHT22;2227;47.810;8.810;2024-02-21T18:46:51;10.20;99.90
4429;DHT22;2227;47.810;8.810;2024-02-21T18:49:18;10.10;99.90
4429;DHT22;2227;47.810;8.810;2024-02-21T18:51:46;10.30;99.90
4429;DHT22;2227;47.810;8.810;2024-02-21T18:54:13;10.30;99.90
4429;DHT22;2227;47.810;8.810;2024-02-21T18:56:47;10.50;99.90
4429;DHT22;2227;47.810;8.810;2024-02-21T18:59:14;10.50;99.90
4429;DHT22;2227;47.810;8.810;2024-02-21T19:01:41;10.50;99.90
4429;DHT22;2227;47.810;8.810;2024-02-21T19:04:08;10.70;99.90
4429;DHT22;2227;47.810;8.810;2024-02-21T19:06:35;10.50;99.90
4429;DHT22;2227;47.810;8.810;2024-02-21T19:09:03;10.70;99.90
4429;DHT22;2227;47.810;8.810;2024-02-21T19:11:31;10.60;99.90
4429;DHT22;2227;47.810;8.810;2024-02-21T19:13:58;10.60;99.90
4429;DHT22;2227;47.810;8.810;2024-02-21T19:16:25;10.80;99.90
4429;DHT22;2227;47.810;8.810;2024-02-21T19:18:53;10.90;99.90
4429;DHT22;2227;47.810;8.810;2024-02-21T19:21:20;10.90;99.90
4429;DHT22;2227;47.810;8.810;2024-02-21T19:23:47;11.00;99.90
4429;DHT22;2227;47.810;8.810;2024-02-21T19:26:14;11.00;99.90
4429;DHT22;2227;47.810;8.810;2024-02-21T19:28:42;11.00;99.90
4429;DHT22;2227;47.810;8.810;2024-02-21T19:31:10;11.20;99.90
4429;DHT22;2227;47.810;8.810;2024-02-21T19:33:39;11.20;99.90
4429;DHT22;2227;47.810;8.810;2024-02-21T19:36:06;11.00;99.90
4429;DHT22;2227;47.810;8.810;2024-02-21T19:38:36;11.20;99.90
4429;DHT22;2227;47.810;8.810;2024-02-21T19:41:04;11.30;99.90
4429;DHT22;2227;47.810;8.810;2024-02-21T19:43:32;11.30;99.90
4429;DHT22;2227;47.810;8.810;2024-02-21T19:46:00;11.10;99.90
4429;DHT22;2227;47.810;8.810;2024-02-21T19:48:28;11.20;99.90
4429;DHT22;2227;47.810;8.810;2024-02-21T19:50:55;11.30;99.90
4429;DHT22;2227;47.810;8.810;2024-02-21T19:53:23;11.20;99.90
4429;DHT22;2227;47.810;8.810;2024-02-21T19:55:50;11.10;99.90
4429;DHT22;2227;47.810;8.810;2024-02-21T19:58:18;10.90;99.90
4429;DHT22;2227;47.810;8.810;2024-02-21T20:00:44;10.80;99.90
4429;DHT22;2227;47.810;8.810;2024-02-21T20:03:11;10.80;99.90
4429;DHT22;2227;47.810;8.810;2024-02-21T20:05:38;10.80;99.90
4429;DHT22;2227;47.810;8.810;2024-02-21T20:08:10;10.70;99.90
4429;DHT22;2227;47.810;8.810;2024-02-21T20:10:38;10.80;99.90
4429;DHT22;2227;47.810;8.810;2024-02-21T20:13:06;10.70;99.90
4429;DHT22;2227;47.810;8.810;2024-02-21T20:15:33;10.70;99.90
4429;DHT22;2227;47.810;8.810;2024-02-21T20:18:00;10.70;99.90
4429;DHT22;2227;47.810;8.810;2024-02-21T20:20:27;10.60;99.90
4429;DHT22;2227;47.810;8.810;2024-02-21T20:22:54;10.70;99.90
4429;DHT22;2227;47.810;8.810;2024-02-21T20:25:21;10.60;99.90
4429;DHT22;2227;47.810;8.810;2024-02-21T20:27:48;10.60;99.90
4429;DHT22;2227;47.810;8.810;2024-02-21T20:30:15;10.70;99.90
4429;DHT22;2227;47.810;8.810;2024-02-21T20:32:42;10.70;99.90
4429;DHT22;2227;47.810;8.810;2024-02-21T20:35:10;10.60;99.90
4429;DHT22;2227;47.810;8.810;2024-02-21T20:37:37;10.50;99.90
4429;DHT22;2227;47.810;8.810;2024-02-21T20:40:05;10.40;99.90
4429;DHT22;2227;47.810;8.810;2024-02-21T20:42:33;10.40;99.90
4429;DHT22;2227;47.810;8.810;2024-02-21T20:45:00;10.40;99.90
4429;DHT22;2227;47.810;8.810;2024-02-21T20:47:28;10.20;99.90
4429;DHT22;2227;47.810;8.810;2024-02-21T20:49:55;10.10;99.90
4429;DHT22;2227;47.810;8.810;2024-02-21T20:52:25;10.00;99.90
4429;DHT22;2227;47.810;8.810;2024-02-21T20:54:52;10.10;99.90
4429;DHT22;2227;47.810;8.810;2024-02-21T20:57:19;10.10;99.90
4429;DHT22;2227;47.810;8.810;2024-02-21T20:59:46;10.10;99.90